Ferry Katsuragi — JI3611 — position and weather

sailwx.info

Track history (hours):
 
Tides and Currents Weather Stations Pressure Air Temp Water Temp Dewpoint Dewpoint Depression Visibility Wind Speed Wind Dir Waves Ship Positions

Ferry Katsuragi

Last reported at 2015-Apr-21 04:33 UTC. Time now 2015-Apr-21 04:58 UTC.
Position N 34°13' E 135°09'.

Length 108 m; draft 4 m.

Type: Passenger vessel. MMSI: 431301245.

Date/timePositionNaut miles runAvg speedWind from/ knotsBaromVisibWave heightAir tempDewpointWater temp
2015-Apr-21 04:33N 34°13' E 135°09'7 6.5
2015-Apr-21 03:33N 34°10' E 135°01'3 1.0
2015-Apr-21 00:13N 34°10' E 134°57'1014.5
2015-Apr-20 23:34N 34°13' E 135°08'2 2.0
2015-Apr-20 22:33N 34°13' E 135°06'19 5.5
2015-Apr-20 19:10N 34°05' E 134°45'914.4
2015-Apr-20 18:31N 34°08' E 134°56'1212.3
2015-Apr-20 17:33N 34°13' E 135°09'0 0.0
2015-Apr-20 16:33N 34°13' E 135°09'0 0.0
2015-Apr-20 15:34N 34°13' E 135°09'6 6.1
2015-Apr-20 14:33N 34°11' E 135°02'1614.4
2015-Apr-20 13:26N 34°03' E 134°44'9 4.1
2015-Apr-20 11:13N 34°05' E 134°55'1015.0
2015-Apr-20 10:33N 34°11' E 135°04'4 3.9
2015-Apr-20 09:33N 34°13' E 135°09'20 5.9
2015-Apr-20 06:09N 34°04' E 134°47'1213.7
2015-Apr-20 05:15N 34°09' E 135°01'811.1
2015-Apr-20 04:33N 34°13' E 135°09'7 6.9
2015-Apr-20 03:34N 34°11' E 135°01'7 1.7
2015-Apr-19 23:34N 34°13' E 135°08'1 0.9
2015-Apr-19 22:33N 34°13' E 135°07'2015.7
2015-Apr-19 21:18N 34°05' E 134°45'0 0.2
2015-Apr-19 19:11N 34°05' E 134°45'1014.2
2015-Apr-19 18:28N 34°09' E 134°57'1111.7
2015-Apr-19 17:33N 34°13' E 135°09'0 0.0
2015-Apr-19 16:33N 34°13' E 135°09'0 0.0
2015-Apr-19 15:33N 34°13' E 135°09'6 5.9
2015-Apr-19 14:32N 34°11' E 135°02'12 4.0
2015-Apr-19 11:32N 34°06' E 134°48'1414.5
2015-Apr-19 10:33N 34°12' E 135°04'4 3.8
2015-Apr-19 09:33N 34°13' E 135°09'21 6.1
2015-Apr-19 06:10N 34°05' E 134°45'1114.6
2015-Apr-19 05:23N 34°10' E 134°58'911.4
2015-Apr-19 04:33N 34°13' E 135°09'6 6.2
2015-Apr-19 03:33N 34°11' E 135°01'9 3.1
2015-Apr-19 00:33N 34°08' E 134°51'1515.0
2015-Apr-18 23:34N 34°13' E 135°08'3 2.9
2015-Apr-18 22:33N 34°13' E 135°04'17 5.2
2015-Apr-18 19:13N 34°06' E 134°45'1013.7
2015-Apr-18 18:31N 34°09' E 134°56'1111.5
2015-Apr-18 17:33N 34°13' E 135°09'0 0.0
2015-Apr-18 16:33N 34°13' E 135°09'0 0.0
2015-Apr-18 15:33N 34°13' E 135°09'7 6.9
2015-Apr-18 14:32N 34°11' E 135°01'11 3.5
2015-Apr-18 11:33N 34°07' E 134°48'1413.8
2015-Apr-18 10:33N 34°12' E 135°04'4 4.0
2015-Apr-18 09:33N 34°13' E 135°09'1514.9
2015-Apr-18 08:32N 34°08' E 134°51'8 2.4
2015-Apr-18 05:14N 34°11' E 135°00'710.7
2015-Apr-18 04:33N 34°13' E 135°09'7 6.9
2015-Apr-18 03:31N 34°10' E 135°01'8 2.6
2015-Apr-18 00:32N 34°08' E 134°51'1514.9
2015-Apr-17 23:33N 34°13' E 135°08'2 2.1
2015-Apr-17 22:33N 34°13' E 135°06'1614.7
2015-Apr-17 21:30N 34°07' E 134°49'4 1.5
2015-Apr-17 19:11N 34°06' E 134°44'913.9
2015-Apr-17 18:33N 34°09' E 134°55'1212.2
2015-Apr-17 17:33N 34°13' E 135°09'0 0.0
2015-Apr-17 16:33N 34°13' E 135°09'0 0.0
2015-Apr-17 15:33N 34°13' E 135°09'6 6.0
2015-Apr-17 14:34N 34°11' E 135°02'10 3.3
2015-Apr-17 11:23N 34°08' E 134°50'1215.0
2015-Apr-17 10:34N 34°12' E 135°04'4 3.8
2015-Apr-17 09:33N 34°13' E 135°08'9 2.1
2015-Apr-17 05:21N 34°10' E 134°58'911.4
2015-Apr-17 04:33N 34°13' E 135°09'7 7.0
2015-Apr-17 03:33N 34°11' E 135°01'4 1.2
2015-Apr-17 00:16N 34°09' E 134°56'1014.4
2015-Apr-16 23:33N 34°13' E 135°08'1 1.2
2015-Apr-16 22:33N 34°13' E 135°06'19 5.7
2015-Apr-16 19:15N 34°06' E 134°45'1013.3
2015-Apr-16 18:30N 34°10' E 134°56'1111.4
2015-Apr-16 17:34N 34°13' E 135°09'0 0.0
2015-Apr-16 16:34N 34°13' E 135°09'0 0.0
2015-Apr-16 15:34N 34°13' E 135°09'7 6.7
2015-Apr-16 14:33N 34°11' E 135°01'10 3.1
2015-Apr-16 11:27N 34°08' E 134°50'1213.9
2015-Apr-16 10:33N 34°12' E 135°04'4 3.6
2015-Apr-16 09:34N 34°13' E 135°08'10 2.4
2015-Apr-16 05:30N 34°12' E 134°57'1010.7
2015-Apr-16 04:33N 34°13' E 135°09'6 6.4
2015-Apr-16 03:33N 34°11' E 135°01'8 2.6
2015-Apr-16 00:28N 34°09' E 134°52'1415.1
2015-Apr-15 23:34N 34°13' E 135°08'2 1.8
2015-Apr-15 22:33N 34°13' E 135°06'1814.4
2015-Apr-15 21:18N 34°06' E 134°46'1 0.4
2015-Apr-15 19:08N 34°06' E 134°46'813.9
2015-Apr-15 18:33N 34°09' E 134°55'1211.6
2015-Apr-15 17:33N 34°13' E 135°09'0 0.0
2015-Apr-15 16:33N 34°13' E 135°09'0 0.0
2015-Apr-15 15:33N 34°13' E 135°09'7 6.8
2015-Apr-15 14:34N 34°11' E 135°01'10 3.1
2015-Apr-15 11:25N 34°08' E 134°50'1314.5
2015-Apr-15 10:33N 34°12' E 135°04'4 3.8
2015-Apr-15 09:33N 34°13' E 135°08'21 6.3
2015-Apr-15 06:15N 34°05' E 134°45'1113.5
2015-Apr-15 05:27N 34°10' E 134°57'1011.7
2015-Apr-15 04:33N 34°13' E 135°09'7 6.6
2015-Apr-15 03:33N 34°11' E 135°01'6 2.0
2015-Apr-15 00:24N 34°08' E 134°54'1314.9
2015-Apr-14 23:33N 34°13' E 135°08'2 2.1
2015-Apr-14 22:33N 34°13' E 135°06'18 5.3
2015-Apr-14 19:10N 34°06' E 134°46'914.2
2015-Apr-14 18:33N 34°08' E 134°56'1211.5
2015-Apr-14 17:33N 34°13' E 135°09'0 0.0
2015-Apr-14 16:33N 34°13' E 135°09'0 0.0
2015-Apr-14 15:33N 34°13' E 135°09'7 6.5
2015-Apr-14 14:33N 34°10' E 135°02'12 3.9
2015-Apr-14 11:33N 34°07' E 134°48'1414.6
2015-Apr-14 10:33N 34°12' E 135°04'4 4.0
2015-Apr-14 09:33N 34°13' E 135°09'12 2.9
2015-Apr-14 05:31N 34°08' E 134°56'1212.1
2015-Apr-14 04:33N 34°13' E 135°09'6 6.3
2015-Apr-14 03:34N 34°11' E 135°01'7 2.1
2015-Apr-14 00:24N 34°09' E 134°54'1315.1
2015-Apr-13 23:33N 34°13' E 135°08'2 2.3
2015-Apr-13 22:34N 34°13' E 135°06'17 5.2
2015-Apr-13 19:11N 34°06' E 134°46'913.2
2015-Apr-13 18:31N 34°10' E 134°56'1111.6
2015-Apr-13 17:33N 34°13' E 135°09'0 0.0
2015-Apr-13 16:34N 34°13' E 135°09'0 0.0
2015-Apr-13 15:33N 34°13' E 135°09'7 7.4
2015-Apr-13 14:33N 34°11' E 135°00'10 3.4
2015-Apr-13 11:31N 34°07' E 134°49'1414.2
2015-Apr-13 10:33N 34°12' E 135°04'4 3.8
2015-Apr-13 09:33N 34°13' E 135°08'20 5.9
2015-Apr-13 06:09N 34°06' E 134°45'1114.0
2015-Apr-13 05:22N 34°10' E 134°58'1011.6
2015-Apr-13 04:33N 34°13' E 135°09'6 6.2
2015-Apr-13 03:33N 34°11' E 135°01'4 1.1
2015-Apr-13 00:12N 34°10' E 134°57'1015.3
2015-Apr-12 23:33N 34°13' E 135°08'2 2.3
2015-Apr-12 22:33N 34°13' E 135°06'18 5.3
2015-Apr-12 19:13N 34°06' E 134°46'913.2
2015-Apr-12 18:30N 34°09' E 134°57'1111.3
2015-Apr-12 17:33N 34°13' E 135°09'0 0.0
2015-Apr-12 16:33N 34°13' E 135°09'0 0.0
2015-Apr-12 15:33N 34°13' E 135°09'7 6.9
2015-Apr-12 14:33N 34°11' E 135°00'12 3.9
2015-Apr-12 11:32N 34°06' E 134°48'1514.8
2015-Apr-12 10:33N 34°12' E 135°04'4 4.0
2015-Apr-12 09:33N 34°13' E 135°09'21 6.1
2015-Apr-12 06:11N 34°06' E 134°45'914.5
2015-Apr-12 05:32N 34°09' E 134°56'1111.4
2015-Apr-12 04:33N 34°13' E 135°09'7 6.5
2015-Apr-12 03:33N 34°12' E 135°01'6 1.7
2015-Apr-12 00:19N 34°09' E 134°55'1215.3
2015-Apr-11 23:33N 34°13' E 135°08'3 3.2
2015-Apr-11 22:33N 34°12' E 135°05'17 5.1
2015-Apr-11 19:14N 34°06' E 134°45'913.4
2015-Apr-11 18:31N 34°10' E 134°56'1111.5
2015-Apr-11 17:33N 34°13' E 135°09'0 0.0
2015-Apr-11 16:34N 34°13' E 135°09'0 0.0
2015-Apr-11 15:33N 34°13' E 135°09'7 7.3
2015-Apr-11 14:33N 34°11' E 134°60'10 3.3
2015-Apr-11 11:32N 34°08' E 134°49'1414.2
2015-Apr-11 10:33N 34°12' E 135°04'4 3.6
2015-Apr-11 09:33N 34°13' E 135°09'21 6.3
2015-Apr-11 06:12N 34°05' E 134°45'1113.9
2015-Apr-11 05:24N 34°09' E 134°58'  
Track history (hours):
 
Tides and Currents Weather Stations Pressure Air Temp Water Temp Dewpoint Dewpoint Depression Visibility Wind Speed Wind Dir Waves Ship Positions

Ferry Katsuragi

Last reported at 2015-Apr-21 04:33 UTC. Time now 2015-Apr-21 04:58 UTC.
Position N 34°13' E 135°09'.

Length 108 m; draft 4 m.

Type: Passenger vessel. MMSI: 431301245.

Date/timePositionNaut miles runAvg speedWind from/ knotsBaromVisibWave heightAir tempDewpointWater temp
2015-Apr-21 04:33N 34°13' E 135°09'7 6.5
2015-Apr-21 03:33N 34°10' E 135°01'3 1.0
2015-Apr-21 00:13N 34°10' E 134°57'1014.5
2015-Apr-20 23:34N 34°13' E 135°08'2 2.0
2015-Apr-20 22:33N 34°13' E 135°06'19 5.5
2015-Apr-20 19:10N 34°05' E 134°45'914.4
2015-Apr-20 18:31N 34°08' E 134°56'1212.3
2015-Apr-20 17:33N 34°13' E 135°09'0 0.0
2015-Apr-20 16:33N 34°13' E 135°09'0 0.0
2015-Apr-20 15:34N 34°13' E 135°09'6 6.1
2015-Apr-20 14:33N 34°11' E 135°02'1614.4
2015-Apr-20 13:26N 34°03' E 134°44'9 4.1
2015-Apr-20 11:13N 34°05' E 134°55'1015.0
2015-Apr-20 10:33N 34°11' E 135°04'4 3.9
2015-Apr-20 09:33N 34°13' E 135°09'20 5.9
2015-Apr-20 06:09N 34°04' E 134°47'1213.7
2015-Apr-20 05:15N 34°09' E 135°01'811.1
2015-Apr-20 04:33N 34°13' E 135°09'7 6.9
2015-Apr-20 03:34N 34°11' E 135°01'7 1.7
2015-Apr-19 23:34N 34°13' E 135°08'1 0.9
2015-Apr-19 22:33N 34°13' E 135°07'2015.7
2015-Apr-19 21:18N 34°05' E 134°45'0 0.2
2015-Apr-19 19:11N 34°05' E 134°45'1014.2
2015-Apr-19 18:28N 34°09' E 134°57'1111.7
2015-Apr-19 17:33N 34°13' E 135°09'0 0.0
2015-Apr-19 16:33N 34°13' E 135°09'0 0.0
2015-Apr-19 15:33N 34°13' E 135°09'6 5.9
2015-Apr-19 14:32N 34°11' E 135°02'12 4.0
2015-Apr-19 11:32N 34°06' E 134°48'1414.5
2015-Apr-19 10:33N 34°12' E 135°04'4 3.8
2015-Apr-19 09:33N 34°13' E 135°09'21 6.1
2015-Apr-19 06:10N 34°05' E 134°45'1114.6
2015-Apr-19 05:23N 34°10' E 134°58'911.4
2015-Apr-19 04:33N 34°13' E 135°09'6 6.2
2015-Apr-19 03:33N 34°11' E 135°01'9 3.1
2015-Apr-19 00:33N 34°08' E 134°51'1515.0
2015-Apr-18 23:34N 34°13' E 135°08'3 2.9
2015-Apr-18 22:33N 34°13' E 135°04'17 5.2
2015-Apr-18 19:13N 34°06' E 134°45'1013.7
2015-Apr-18 18:31N 34°09' E 134°56'1111.5
2015-Apr-18 17:33N 34°13' E 135°09'0 0.0
2015-Apr-18 16:33N 34°13' E 135°09'0 0.0
2015-Apr-18 15:33N 34°13' E 135°09'7 6.9
2015-Apr-18 14:32N 34°11' E 135°01'11 3.5
2015-Apr-18 11:33N 34°07' E 134°48'1413.8
2015-Apr-18 10:33N 34°12' E 135°04'4 4.0
2015-Apr-18 09:33N 34°13' E 135°09'1514.9
2015-Apr-18 08:32N 34°08' E 134°51'8 2.4
2015-Apr-18 05:14N 34°11' E 135°00'710.7
2015-Apr-18 04:33N 34°13' E 135°09'7 6.9
2015-Apr-18 03:31N 34°10' E 135°01'8 2.6
2015-Apr-18 00:32N 34°08' E 134°51'1514.9
2015-Apr-17 23:33N 34°13' E 135°08'2 2.1
2015-Apr-17 22:33N 34°13' E 135°06'1614.7
2015-Apr-17 21:30N 34°07' E 134°49'4 1.5
2015-Apr-17 19:11N 34°06' E 134°44'913.9
2015-Apr-17 18:33N 34°09' E 134°55'1212.2
2015-Apr-17 17:33N 34°13' E 135°09'0 0.0
2015-Apr-17 16:33N 34°13' E 135°09'0 0.0
2015-Apr-17 15:33N 34°13' E 135°09'6 6.0
2015-Apr-17 14:34N 34°11' E 135°02'10 3.3
2015-Apr-17 11:23N 34°08' E 134°50'1215.0
2015-Apr-17 10:34N 34°12' E 135°04'4 3.8
2015-Apr-17 09:33N 34°13' E 135°08'9 2.1
2015-Apr-17 05:21N 34°10' E 134°58'911.4
2015-Apr-17 04:33N 34°13' E 135°09'7 7.0
2015-Apr-17 03:33N 34°11' E 135°01'4 1.2
2015-Apr-17 00:16N 34°09' E 134°56'1014.4
2015-Apr-16 23:33N 34°13' E 135°08'1 1.2
2015-Apr-16 22:33N 34°13' E 135°06'19 5.7
2015-Apr-16 19:15N 34°06' E 134°45'1013.3
2015-Apr-16 18:30N 34°10' E 134°56'1111.4
2015-Apr-16 17:34N 34°13' E 135°09'0 0.0
2015-Apr-16 16:34N 34°13' E 135°09'0 0.0
2015-Apr-16 15:34N 34°13' E 135°09'7 6.7
2015-Apr-16 14:33N 34°11' E 135°01'10 3.1
2015-Apr-16 11:27N 34°08' E 134°50'1213.9
2015-Apr-16 10:33N 34°12' E 135°04'4 3.6
2015-Apr-16 09:34N 34°13' E 135°08'10 2.4
2015-Apr-16 05:30N 34°12' E 134°57'1010.7
2015-Apr-16 04:33N 34°13' E 135°09'6 6.4
2015-Apr-16 03:33N 34°11' E 135°01'8 2.6
2015-Apr-16 00:28N 34°09' E 134°52'1415.1
2015-Apr-15 23:34N 34°13' E 135°08'2 1.8
2015-Apr-15 22:33N 34°13' E 135°06'1814.4
2015-Apr-15 21:18N 34°06' E 134°46'1 0.4
2015-Apr-15 19:08N 34°06' E 134°46'813.9
2015-Apr-15 18:33N 34°09' E 134°55'1211.6
2015-Apr-15 17:33N 34°13' E 135°09'0 0.0
2015-Apr-15 16:33N 34°13' E 135°09'0 0.0
2015-Apr-15 15:33N 34°13' E 135°09'7 6.8
2015-Apr-15 14:34N 34°11' E 135°01'10 3.1
2015-Apr-15 11:25N 34°08' E 134°50'1314.5
2015-Apr-15 10:33N 34°12' E 135°04'4 3.8
2015-Apr-15 09:33N 34°13' E 135°08'21 6.3
2015-Apr-15 06:15N 34°05' E 134°45'1113.5
2015-Apr-15 05:27N 34°10' E 134°57'1011.7
2015-Apr-15 04:33N 34°13' E 135°09'7 6.6
2015-Apr-15 03:33N 34°11' E 135°01'6 2.0
2015-Apr-15 00:24N 34°08' E 134°54'1314.9
2015-Apr-14 23:33N 34°13' E 135°08'2 2.1
2015-Apr-14 22:33N 34°13' E 135°06'18 5.3
2015-Apr-14 19:10N 34°06' E 134°46'914.2
2015-Apr-14 18:33N 34°08' E 134°56'1211.5
2015-Apr-14 17:33N 34°13' E 135°09'0 0.0
2015-Apr-14 16:33N 34°13' E 135°09'0 0.0
2015-Apr-14 15:33N 34°13' E 135°09'7 6.5
2015-Apr-14 14:33N 34°10' E 135°02'12 3.9
2015-Apr-14 11:33N 34°07' E 134°48'1414.6
2015-Apr-14 10:33N 34°12' E 135°04'4 4.0
2015-Apr-14 09:33N 34°13' E 135°09'12 2.9
2015-Apr-14 05:31N 34°08' E 134°56'1212.1
2015-Apr-14 04:33N 34°13' E 135°09'6 6.3
2015-Apr-14 03:34N 34°11' E 135°01'7 2.1
2015-Apr-14 00:24N 34°09' E 134°54'1315.1
2015-Apr-13 23:33N 34°13' E 135°08'2 2.3
2015-Apr-13 22:34N 34°13' E 135°06'17 5.2
2015-Apr-13 19:11N 34°06' E 134°46'913.2
2015-Apr-13 18:31N 34°10' E 134°56'1111.6
2015-Apr-13 17:33N 34°13' E 135°09'0 0.0
2015-Apr-13 16:34N 34°13' E 135°09'0 0.0
2015-Apr-13 15:33N 34°13' E 135°09'7 7.4
2015-Apr-13 14:33N 34°11' E 135°00'10 3.4
2015-Apr-13 11:31N 34°07' E 134°49'1414.2
2015-Apr-13 10:33N 34°12' E 135°04'4 3.8
2015-Apr-13 09:33N 34°13' E 135°08'20 5.9
2015-Apr-13 06:09N 34°06' E 134°45'1114.0
2015-Apr-13 05:22N 34°10' E 134°58'1011.6
2015-Apr-13 04:33N 34°13' E 135°09'6 6.2
2015-Apr-13 03:33N 34°11' E 135°01'4 1.1
2015-Apr-13 00:12N 34°10' E 134°57'1015.3
2015-Apr-12 23:33N 34°13' E 135°08'2 2.3
2015-Apr-12 22:33N 34°13' E 135°06'18 5.3
2015-Apr-12 19:13N 34°06' E 134°46'913.2
2015-Apr-12 18:30N 34°09' E 134°57'1111.3
2015-Apr-12 17:33N 34°13' E 135°09'0 0.0
2015-Apr-12 16:33N 34°13' E 135°09'0 0.0
2015-Apr-12 15:33N 34°13' E 135°09'7 6.9
2015-Apr-12 14:33N 34°11' E 135°00'12 3.9
2015-Apr-12 11:32N 34°06' E 134°48'1514.8
2015-Apr-12 10:33N 34°12' E 135°04'4 4.0
2015-Apr-12 09:33N 34°13' E 135°09'21 6.1
2015-Apr-12 06:11N 34°06' E 134°45'914.5
2015-Apr-12 05:32N 34°09' E 134°56'1111.4
2015-Apr-12 04:33N 34°13' E 135°09'7 6.5
2015-Apr-12 03:33N 34°12' E 135°01'6 1.7
2015-Apr-12 00:19N 34°09' E 134°55'1215.3
2015-Apr-11 23:33N 34°13' E 135°08'3 3.2
2015-Apr-11 22:33N 34°12' E 135°05'17 5.1
2015-Apr-11 19:14N 34°06' E 134°45'913.4
2015-Apr-11 18:31N 34°10' E 134°56'1111.5
2015-Apr-11 17:33N 34°13' E 135°09'0 0.0
2015-Apr-11 16:34N 34°13' E 135°09'0 0.0
2015-Apr-11 15:33N 34°13' E 135°09'7 7.3
2015-Apr-11 14:33N 34°11' E 134°60'10 3.3
2015-Apr-11 11:32N 34°08' E 134°49'1414.2
2015-Apr-11 10:33N 34°12' E 135°04'4 3.6
2015-Apr-11 09:33N 34°13' E 135°09'21 6.3
2015-Apr-11 06:12N 34°05' E 134°45'1113.9
2015-Apr-11 05:24N 34°09' E 134°58'  

Dump ship's entire track history